createdAt,value
2022-12-29T00:00:02.889Z,983.43
2022-12-29T00:01:03.108Z,983.38
2022-12-29T00:02:02.873Z,983.36
2022-12-29T00:03:02.962Z,983.31
2022-12-29T00:04:02.898Z,983.31
2022-12-29T00:05:02.857Z,983.34
2022-12-29T00:06:02.821Z,983.35
2022-12-29T00:07:02.815Z,983.36
2022-12-29T00:08:02.800Z,983.36
2022-12-29T00:09:02.798Z,983.48
2022-12-29T00:10:02.778Z,983.37
2022-12-29T00:11:02.789Z,983.37
2022-12-29T00:12:02.794Z,983.33
2022-12-29T00:13:02.751Z,983.37
2022-12-29T00:14:02.743Z,983.32
2022-12-29T00:15:02.724Z,983.29
2022-12-29T00:16:02.813Z,983.29
2022-12-29T00:17:02.714Z,983.14
2022-12-29T00:18:02.711Z,983.21
2022-12-29T00:19:02.682Z,983.26
2022-12-29T00:20:02.675Z,983.24
2022-12-29T00:21:02.679Z,983.12
2022-12-29T00:22:02.665Z,983.16
2022-12-29T00:23:02.654Z,983.11
2022-12-29T00:24:02.627Z,983.15
2022-12-29T00:25:02.625Z,983.17
2022-12-29T00:26:02.605Z,983.12
2022-12-29T00:27:02.608Z,983.19
2022-12-29T00:28:07.169Z,983.04
2022-12-29T00:29:02.586Z,982.98
2022-12-29T00:30:02.567Z,983.04
2022-12-29T00:31:02.660Z,983.04
2022-12-29T00:32:02.554Z,982.99
2022-12-29T00:33:02.564Z,983.00
2022-12-29T00:34:02.536Z,982.85
2022-12-29T00:35:02.534Z,982.85
2022-12-29T00:36:02.507Z,982.82
2022-12-29T00:37:02.528Z,982.98
2022-12-29T00:38:02.483Z,982.98
2022-12-29T00:39:02.494Z,982.94
2022-12-29T00:40:02.459Z,982.87
2022-12-29T00:41:02.453Z,982.95
2022-12-29T00:42:02.437Z,982.96
2022-12-29T00:43:02.446Z,982.88
2022-12-29T00:44:02.440Z,982.80
2022-12-29T00:45:02.440Z,982.87
2022-12-29T00:46:02.413Z,982.98
2022-12-29T00:47:02.467Z,982.86
2022-12-29T00:48:02.373Z,982.82
2022-12-29T00:49:02.374Z,982.82
2022-12-29T00:50:02.356Z,982.81
2022-12-29T00:51:02.362Z,982.81
2022-12-29T00:52:02.359Z,982.79
2022-12-29T00:53:02.323Z,982.77
2022-12-29T00:54:02.309Z,982.78
2022-12-29T00:55:02.310Z,982.82
2022-12-29T00:56:02.294Z,982.86
2022-12-29T00:57:02.333Z,982.78
2022-12-29T00:58:02.264Z,982.84
2022-12-29T00:59:02.289Z,982.79
2022-12-29T01:00:02.251Z,982.78
2022-12-29T01:01:02.282Z,982.76
2022-12-29T01:02:02.357Z,982.83
2022-12-29T01:03:02.337Z,982.89
2022-12-29T01:04:04.488Z,982.87
2022-12-29T01:05:02.196Z,982.71
2022-12-29T01:06:02.183Z,982.61
2022-12-29T01:07:02.178Z,982.70
2022-12-29T01:08:02.171Z,982.69
2022-12-29T01:09:02.174Z,982.66
2022-12-29T01:10:02.141Z,982.67
2022-12-29T01:11:02.134Z,982.66
2022-12-29T01:12:02.114Z,982.69
2022-12-29T01:13:02.106Z,982.72
2022-12-29T01:14:02.123Z,982.65
2022-12-29T01:15:02.085Z,982.67
2022-12-29T01:16:02.102Z,982.63
2022-12-29T01:17:02.072Z,982.62
2022-12-29T01:18:02.055Z,982.56
2022-12-29T01:19:02.039Z,982.57
2022-12-29T01:20:02.087Z,982.56
2022-12-29T01:21:02.014Z,982.58
2022-12-29T01:22:02.026Z,982.57
2022-12-29T01:23:01.996Z,982.64
2022-12-29T01:24:02.007Z,982.67
2022-12-29T01:25:02.005Z,982.80
2022-12-29T01:26:01.955Z,982.58
2022-12-29T01:27:01.980Z,982.87
2022-12-29T01:28:01.949Z,982.82
2022-12-29T01:29:01.961Z,982.86
2022-12-29T01:30:01.937Z,982.76
2022-12-29T01:31:01.926Z,982.78
2022-12-29T01:32:01.975Z,982.88
2022-12-29T01:33:01.891Z,982.78
2022-12-29T01:34:01.904Z,982.76
2022-12-29T01:35:01.868Z,982.78
2022-12-29T01:36:01.868Z,982.80
2022-12-29T01:37:01.871Z,982.74
2022-12-29T01:38:01.835Z,982.74
2022-12-29T01:39:01.822Z,982.66
2022-12-29T01:40:01.821Z,982.60
2022-12-29T01:41:01.803Z,982.56
2022-12-29T01:42:01.787Z,982.59
2022-12-29T01:43:01.801Z,982.61
2022-12-29T01:44:01.778Z,982.65
2022-12-29T01:45:01.758Z,982.60
2022-12-29T01:46:01.763Z,982.66
2022-12-29T01:47:01.753Z,982.69
2022-12-29T01:48:01.735Z,982.63
2022-12-29T01:49:01.768Z,982.66
2022-12-29T01:50:01.732Z,982.73
2022-12-29T01:51:01.696Z,982.68
2022-12-29T01:52:01.681Z,982.76
2022-12-29T01:53:01.677Z,982.62
2022-12-29T01:54:01.660Z,982.61
2022-12-29T01:55:01.648Z,982.68
2022-12-29T01:56:01.634Z,982.61
2022-12-29T01:57:01.652Z,982.56
2022-12-29T01:58:01.629Z,982.62
2022-12-29T01:59:01.659Z,982.53
2022-12-29T02:00:01.603Z,982.48
2022-12-29T02:01:01.683Z,982.58
2022-12-29T02:02:01.654Z,982.49
2022-12-29T02:03:01.635Z,982.45
2022-12-29T02:04:01.561Z,982.41
2022-12-29T02:05:04.687Z,982.43
2022-12-29T02:06:01.537Z,982.45
2022-12-29T02:07:01.539Z,982.55
2022-12-29T02:08:01.497Z,982.47
2022-12-29T02:09:01.522Z,982.45
2022-12-29T02:10:01.499Z,982.48
2022-12-29T02:11:01.475Z,982.51
2022-12-29T02:12:01.456Z,982.41
2022-12-29T02:13:01.466Z,982.38
2022-12-29T02:14:03.761Z,982.35
2022-12-29T02:15:01.444Z,982.40
2022-12-29T02:16:01.456Z,982.35
2022-12-29T02:17:01.458Z,982.32
2022-12-29T02:18:01.397Z,982.43
2022-12-29T02:19:01.385Z,982.33
2022-12-29T02:20:01.373Z,982.39
2022-12-29T02:21:01.350Z,982.36
2022-12-29T02:22:01.390Z,982.37
2022-12-29T02:23:01.344Z,982.34
2022-12-29T02:24:01.317Z,982.37
2022-12-29T02:25:01.314Z,982.35
2022-12-29T02:26:01.318Z,982.26
2022-12-29T02:27:01.282Z,982.39
2022-12-29T02:28:01.286Z,982.32
2022-12-29T02:29:01.267Z,982.40
2022-12-29T02:30:01.267Z,982.36
2022-12-29T02:31:01.240Z,982.32
2022-12-29T02:32:01.416Z,982.24
2022-12-29T02:33:01.223Z,982.28
2022-12-29T02:34:01.228Z,982.20
2022-12-29T02:35:01.197Z,982.21
2022-12-29T02:36:01.195Z,982.26
2022-12-29T02:37:01.214Z,982.24
2022-12-29T02:38:01.169Z,982.22
2022-12-29T02:39:01.151Z,982.17
2022-12-29T02:40:01.146Z,982.11
2022-12-29T02:41:01.124Z,982.22
2022-12-29T02:42:01.131Z,982.21
2022-12-29T02:43:01.119Z,982.27
2022-12-29T02:44:01.111Z,982.29
2022-12-29T02:45:01.081Z,982.15
2022-12-29T02:46:01.245Z,982.19
2022-12-29T02:47:01.100Z,982.13
2022-12-29T02:48:01.053Z,982.09
2022-12-29T02:49:01.050Z,982.10
2022-12-29T02:50:01.032Z,982.13
2022-12-29T02:51:01.050Z,982.11
2022-12-29T02:52:01.021Z,982.03
2022-12-29T02:53:01.009Z,982.14
2022-12-29T02:54:00.984Z,982.06
2022-12-29T02:55:00.975Z,982.10
2022-12-29T02:56:00.977Z,982.06
2022-12-29T02:57:00.972Z,982.07
2022-12-29T02:58:00.947Z,982.11
2022-12-29T02:59:00.959Z,982.12
2022-12-29T03:00:00.917Z,982.08
2022-12-29T03:01:00.941Z,982.07
2022-12-29T03:02:01.057Z,982.09
2022-12-29T03:03:00.969Z,982.08
2022-12-29T03:04:00.878Z,982.12
2022-12-29T03:05:00.869Z,982.02
2022-12-29T03:06:00.845Z,982.10
2022-12-29T03:07:00.829Z,982.05
2022-12-29T03:08:00.838Z,981.95
2022-12-29T03:09:00.814Z,982.02
2022-12-29T03:10:00.803Z,981.96
2022-12-29T03:11:00.792Z,982.03
2022-12-29T03:12:00.784Z,981.94
2022-12-29T03:13:00.777Z,981.95
2022-12-29T03:14:00.775Z,981.91
2022-12-29T03:15:00.754Z,981.94
2022-12-29T03:16:00.734Z,981.79
2022-12-29T03:17:00.834Z,981.83
2022-12-29T03:18:00.698Z,982.00
2022-12-29T03:19:00.697Z,981.95
2022-12-29T03:20:00.701Z,981.90
2022-12-29T03:21:00.670Z,981.88
2022-12-29T03:22:00.679Z,981.90
2022-12-29T03:23:00.656Z,981.84
2022-12-29T03:24:00.640Z,981.91
2022-12-29T03:25:00.640Z,981.88
2022-12-29T03:26:00.605Z,981.87
2022-12-29T03:27:00.602Z,981.89
2022-12-29T03:28:00.632Z,981.88
2022-12-29T03:29:00.570Z,981.89
2022-12-29T03:30:00.574Z,981.82
2022-12-29T03:31:00.601Z,981.93
2022-12-29T03:32:00.546Z,981.95
2022-12-29T03:33:00.529Z,981.89
2022-12-29T03:34:00.535Z,981.77
2022-12-29T03:35:00.505Z,981.85
2022-12-29T03:36:00.503Z,981.83
2022-12-29T03:37:00.481Z,981.74
2022-12-29T03:38:00.487Z,981.71
2022-12-29T03:39:00.474Z,981.68
2022-12-29T03:40:00.453Z,981.74
2022-12-29T03:41:00.460Z,981.69
2022-12-29T03:42:00.435Z,981.70
2022-12-29T03:43:00.425Z,981.66
2022-12-29T03:44:00.400Z,981.72
2022-12-29T03:45:00.410Z,981.64
2022-12-29T03:46:00.580Z,981.61
2022-12-29T03:47:00.362Z,981.60
2022-12-29T03:48:00.371Z,981.63
2022-12-29T03:49:00.349Z,981.65
2022-12-29T03:50:00.331Z,981.59
2022-12-29T03:51:00.330Z,981.71
2022-12-29T03:52:00.325Z,981.64
2022-12-29T03:53:00.317Z,981.67
2022-12-29T03:54:00.289Z,981.70
2022-12-29T03:55:00.272Z,981.64
2022-12-29T03:56:00.287Z,981.60
2022-12-29T03:57:00.253Z,981.55
2022-12-29T03:58:00.243Z,981.58
2022-12-29T03:59:00.271Z,981.52
2022-12-29T04:00:00.235Z,981.56
2022-12-29T04:01:00.238Z,981.57
2022-12-29T04:02:00.404Z,981.55
2022-12-29T04:03:00.290Z,981.47
2022-12-29T04:04:00.187Z,981.41
2022-12-29T04:05:00.166Z,981.52
2022-12-29T04:06:00.157Z,981.48
2022-12-29T04:07:00.166Z,981.46
2022-12-29T04:08:00.150Z,981.53
2022-12-29T04:09:00.156Z,981.44
2022-12-29T04:10:00.153Z,981.32
2022-12-29T04:11:00.109Z,981.36
2022-12-29T04:12:00.145Z,981.35
2022-12-29T04:13:00.127Z,981.39
2022-12-29T04:14:00.073Z,981.34
2022-12-29T04:15:00.075Z,981.39
2022-12-29T04:16:00.198Z,981.48
2022-12-29T04:17:00.028Z,981.32
2022-12-29T04:18:00.034Z,981.44
2022-12-29T04:19:00.046Z,981.30
2022-12-29T04:20:00.001Z,981.28
2022-12-29T04:21:00.014Z,981.22
2022-12-29T04:21:59.974Z,981.15
2022-12-29T04:22:59.980Z,981.20
2022-12-29T04:23:59.970Z,981.23
2022-12-29T04:24:59.953Z,981.20
2022-12-29T04:25:59.947Z,981.24
2022-12-29T04:26:59.922Z,981.15
2022-12-29T04:27:59.930Z,981.19
2022-12-29T04:28:59.922Z,981.26
2022-12-29T04:29:59.913Z,981.17
2022-12-29T04:30:59.929Z,981.18
2022-12-29T04:31:59.889Z,981.23
2022-12-29T04:32:59.859Z,981.20
2022-12-29T04:33:59.865Z,981.31
2022-12-29T04:34:59.831Z,981.25
2022-12-29T04:35:59.833Z,981.34
2022-12-29T04:36:59.830Z,981.22
2022-12-29T04:37:59.811Z,981.34
2022-12-29T04:38:59.803Z,981.31
2022-12-29T04:39:59.787Z,981.27
2022-12-29T04:40:59.801Z,981.27
2022-12-29T04:41:59.761Z,981.25
2022-12-29T04:42:59.757Z,981.29
2022-12-29T04:43:59.740Z,981.35
2022-12-29T04:44:59.735Z,981.35
2022-12-29T04:45:59.798Z,981.38
2022-12-29T04:46:59.719Z,981.43
2022-12-29T04:47:59.697Z,981.43
2022-12-29T04:48:59.682Z,981.51
2022-12-29T04:49:59.668Z,981.46
2022-12-29T04:50:59.673Z,981.33
2022-12-29T04:51:59.675Z,981.50
2022-12-29T04:52:59.647Z,981.41
2022-12-29T04:53:59.661Z,981.46
2022-12-29T04:54:59.627Z,981.34
2022-12-29T04:55:59.609Z,981.42
2022-12-29T04:56:59.611Z,981.41
2022-12-29T04:57:59.584Z,981.45
2022-12-29T04:58:59.569Z,981.50
2022-12-29T04:59:59.585Z,981.38
2022-12-29T05:00:59.550Z,981.27
2022-12-29T05:01:59.643Z,981.49
2022-12-29T05:02:59.719Z,981.40
2022-12-29T05:03:59.569Z,981.52
2022-12-29T05:04:59.519Z,981.56
2022-12-29T05:05:59.498Z,981.67
2022-12-29T05:06:59.501Z,981.61
2022-12-29T05:07:59.505Z,981.60
2022-12-29T05:08:59.498Z,981.56
2022-12-29T05:09:59.457Z,981.50
2022-12-29T05:10:59.446Z,981.40
2022-12-29T05:11:59.442Z,981.53
2022-12-29T05:12:59.435Z,981.51
2022-12-29T05:13:59.437Z,981.52
2022-12-29T05:14:59.417Z,981.60
2022-12-29T05:15:59.408Z,981.66
2022-12-29T05:16:59.389Z,981.65
2022-12-29T05:17:59.389Z,981.64
2022-12-29T05:18:59.368Z,981.77
2022-12-29T05:19:59.373Z,981.71
2022-12-29T05:20:59.351Z,981.66
2022-12-29T05:21:59.332Z,981.69
2022-12-29T05:22:59.309Z,981.68
2022-12-29T05:23:59.305Z,981.65
2022-12-29T05:24:59.295Z,981.64
2022-12-29T05:25:59.310Z,981.69
2022-12-29T05:26:59.272Z,981.70
2022-12-29T05:27:59.274Z,981.72
2022-12-29T05:28:59.268Z,981.61
2022-12-29T05:29:59.237Z,981.75
2022-12-29T05:30:59.277Z,981.87
2022-12-29T05:31:59.244Z,981.88
2022-12-29T05:32:59.218Z,981.85
2022-12-29T05:33:59.199Z,981.73
2022-12-29T05:34:59.193Z,981.89
2022-12-29T05:35:59.185Z,981.91
2022-12-29T05:36:59.163Z,981.90
2022-12-29T05:37:59.171Z,981.88
2022-12-29T05:38:59.141Z,982.00
2022-12-29T05:39:59.133Z,981.83
2022-12-29T05:40:59.118Z,981.90
2022-12-29T05:41:59.117Z,981.83
2022-12-29T05:42:59.093Z,981.84
2022-12-29T05:43:59.083Z,981.89
2022-12-29T05:44:59.085Z,981.88
2022-12-29T05:45:59.050Z,981.87
2022-12-29T05:46:59.086Z,981.94
2022-12-29T05:47:59.048Z,981.92
2022-12-29T05:48:59.028Z,981.92
2022-12-29T05:49:59.009Z,981.96
2022-12-29T05:50:59.002Z,981.88
2022-12-29T05:51:58.984Z,981.89
2022-12-29T05:52:58.995Z,981.90
2022-12-29T05:53:58.973Z,981.91
2022-12-29T05:54:58.951Z,981.96
2022-12-29T05:55:58.948Z,982.03
2022-12-29T05:56:58.919Z,981.78
2022-12-29T05:57:58.913Z,981.96
2022-12-29T05:58:58.929Z,981.93
2022-12-29T05:59:58.935Z,982.00
2022-12-29T06:00:58.887Z,982.04
2022-12-29T06:01:59.052Z,981.94
2022-12-29T06:02:59.158Z,982.05
2022-12-29T06:03:58.944Z,982.00
2022-12-29T06:04:58.836Z,982.08
2022-12-29T06:05:58.817Z,982.12
2022-12-29T06:06:58.812Z,982.14
2022-12-29T06:07:58.804Z,982.07
2022-12-29T06:08:58.796Z,982.17
2022-12-29T06:09:58.799Z,982.05
2022-12-29T06:10:58.776Z,982.18
2022-12-29T06:11:58.762Z,982.19
2022-12-29T06:12:58.748Z,982.09
2022-12-29T06:13:58.747Z,982.13
2022-12-29T06:14:58.731Z,982.05
2022-12-29T06:15:58.750Z,982.16
2022-12-29T06:16:58.710Z,982.24
2022-12-29T06:17:58.692Z,982.05
2022-12-29T06:18:58.704Z,982.17
2022-12-29T06:19:58.678Z,982.17
2022-12-29T06:20:58.662Z,982.04
2022-12-29T06:21:58.674Z,982.18
2022-12-29T06:22:58.635Z,982.09
2022-12-29T06:23:58.622Z,982.13
2022-12-29T06:25:04.360Z,982.07
2022-12-29T06:25:58.607Z,982.03
2022-12-29T06:26:58.592Z,982.10
2022-12-29T06:27:58.590Z,982.21
2022-12-29T06:28:58.564Z,982.21
2022-12-29T06:29:58.551Z,982.11
2022-12-29T06:30:58.543Z,982.17
2022-12-29T06:31:58.667Z,982.24
2022-12-29T06:32:58.544Z,982.25
2022-12-29T06:34:00.372Z,982.11
2022-12-29T06:34:58.502Z,982.16
2022-12-29T06:35:58.480Z,982.21
2022-12-29T06:36:58.477Z,982.22
2022-12-29T06:37:58.475Z,982.20
2022-12-29T06:38:58.518Z,982.23
2022-12-29T06:39:58.460Z,982.17
2022-12-29T06:40:58.432Z,982.34
2022-12-29T06:41:58.436Z,982.35
2022-12-29T06:42:58.419Z,982.35
2022-12-29T06:43:58.404Z,982.33
2022-12-29T06:44:58.404Z,982.43
2022-12-29T06:45:58.462Z,982.46
2022-12-29T06:46:58.496Z,982.38
2022-12-29T06:47:58.383Z,982.45
2022-12-29T06:48:58.397Z,982.41
2022-12-29T06:49:58.331Z,982.42
2022-12-29T06:50:58.343Z,982.44
2022-12-29T06:51:58.303Z,982.42
2022-12-29T06:52:58.304Z,982.45
2022-12-29T06:53:58.303Z,982.46
2022-12-29T06:54:58.278Z,982.53
2022-12-29T06:55:58.274Z,982.55
2022-12-29T06:56:58.275Z,982.54
2022-12-29T06:57:58.255Z,982.54
2022-12-29T06:58:58.327Z,982.52
2022-12-29T06:59:58.227Z,982.53
2022-12-29T07:00:58.279Z,982.55
2022-12-29T07:01:58.482Z,982.59
2022-12-29T07:02:58.287Z,982.59
2022-12-29T07:03:58.171Z,982.63
2022-12-29T07:04:58.176Z,982.60
2022-12-29T07:05:58.180Z,982.57
2022-12-29T07:06:58.152Z,982.68
2022-12-29T07:07:58.140Z,982.57
2022-12-29T07:08:58.155Z,982.62
2022-12-29T07:09:58.116Z,982.62
2022-12-29T07:10:58.112Z,982.59
2022-12-29T07:11:58.094Z,982.63
2022-12-29T07:12:58.091Z,982.52
2022-12-29T07:14:04.717Z,982.61
2022-12-29T07:14:58.098Z,982.59
2022-12-29T07:15:58.057Z,982.58
2022-12-29T07:16:58.077Z,982.55
2022-12-29T07:17:58.031Z,982.67
2022-12-29T07:18:58.019Z,982.63
2022-12-29T07:19:58.018Z,982.68
2022-12-29T07:20:57.990Z,982.65
2022-12-29T07:21:57.990Z,982.59
2022-12-29T07:22:57.973Z,982.61
2022-12-29T07:23:57.959Z,982.63
2022-12-29T07:24:57.955Z,982.62
2022-12-29T07:25:57.947Z,982.62
2022-12-29T07:26:57.932Z,982.66
2022-12-29T07:27:57.917Z,982.66
2022-12-29T07:28:57.898Z,982.71
2022-12-29T07:29:57.901Z,982.66
2022-12-29T07:30:57.890Z,982.68
2022-12-29T07:31:57.923Z,982.66
2022-12-29T07:32:57.861Z,982.75
2022-12-29T07:33:57.853Z,982.79
2022-12-29T07:34:57.844Z,982.77
2022-12-29T07:35:57.854Z,982.74
2022-12-29T07:36:57.820Z,982.74
2022-12-29T07:37:57.811Z,983.01
2022-12-29T07:38:57.813Z,982.82
2022-12-29T07:39:57.795Z,982.90
2022-12-29T07:40:57.771Z,983.02
2022-12-29T07:42:04.358Z,983.02
2022-12-29T07:42:57.767Z,983.20
2022-12-29T07:43:57.751Z,983.00
2022-12-29T07:44:57.735Z,983.02
2022-12-29T07:45:57.834Z,983.01
2022-12-29T07:46:58.964Z,983.07
2022-12-29T07:47:57.690Z,983.17
2022-12-29T07:48:57.697Z,983.00
2022-12-29T07:49:57.691Z,983.06
2022-12-29T07:50:57.655Z,983.11
2022-12-29T07:51:57.644Z,983.17
2022-12-29T07:52:57.645Z,983.20
2022-12-29T07:53:57.630Z,983.18
2022-12-29T07:54:57.614Z,983.21
2022-12-29T07:55:57.612Z,983.30
2022-12-29T07:56:57.591Z,983.26
2022-12-29T07:57:57.618Z,983.22
2022-12-29T07:58:57.581Z,983.21
2022-12-29T07:59:57.549Z,983.25
2022-12-29T08:00:57.556Z,983.33
2022-12-29T08:01:57.676Z,983.37
2022-12-29T08:02:57.536Z,983.38
2022-12-29T08:03:57.991Z,983.27
2022-12-29T08:04:57.505Z,983.47
2022-12-29T08:05:57.481Z,983.54
2022-12-29T08:06:57.470Z,983.41
2022-12-29T08:07:57.467Z,983.42
2022-12-29T08:08:57.457Z,983.57
2022-12-29T08:09:57.436Z,983.52
2022-12-29T08:10:57.432Z,983.47
2022-12-29T08:11:57.408Z,983.44
2022-12-29T08:12:57.423Z,983.43
2022-12-29T08:13:57.383Z,983.39
2022-12-29T08:14:57.394Z,983.45
2022-12-29T08:15:57.422Z,983.49
2022-12-29T08:16:57.381Z,983.46
2022-12-29T08:17:57.355Z,983.41
2022-12-29T08:18:57.342Z,983.41
2022-12-29T08:19:57.332Z,983.43
2022-12-29T08:20:57.307Z,983.46
2022-12-29T08:21:57.295Z,983.41
2022-12-29T08:22:57.298Z,983.39
2022-12-29T08:23:57.268Z,983.39
2022-12-29T08:24:57.257Z,983.36
2022-12-29T08:25:57.256Z,983.33
2022-12-29T08:26:57.275Z,983.34
2022-12-29T08:27:57.265Z,983.35
2022-12-29T08:28:57.334Z,983.36
2022-12-29T08:29:57.203Z,983.36
2022-12-29T08:30:58.001Z,983.48
2022-12-29T08:31:57.268Z,983.39
2022-12-29T08:32:57.156Z,983.39
2022-12-29T08:33:57.188Z,983.40
2022-12-29T08:34:57.156Z,983.46
2022-12-29T08:35:57.163Z,983.37
2022-12-29T08:36:57.952Z,983.37
2022-12-29T08:37:57.257Z,983.42
2022-12-29T08:38:57.107Z,983.39
2022-12-29T08:39:57.109Z,983.33
2022-12-29T08:40:57.149Z,983.36
2022-12-29T08:41:57.160Z,983.37
2022-12-29T08:42:57.197Z,983.48
2022-12-29T08:43:57.195Z,983.38
2022-12-29T08:44:57.229Z,983.34
2022-12-29T08:45:57.265Z,983.32
2022-12-29T08:46:57.144Z,983.33
2022-12-29T08:47:57.043Z,983.29
2022-12-29T08:48:58.208Z,983.32
2022-12-29T08:49:56.976Z,983.27
2022-12-29T08:50:56.983Z,983.20
2022-12-29T08:51:56.974Z,983.22
2022-12-29T08:52:56.952Z,983.18
2022-12-29T08:53:56.945Z,983.19
2022-12-29T08:54:56.934Z,983.24
2022-12-29T08:56:00.797Z,983.29
2022-12-29T08:56:56.919Z,983.31
2022-12-29T08:57:56.890Z,983.35
2022-12-29T08:58:56.884Z,983.48
2022-12-29T08:59:56.870Z,983.60
2022-12-29T09:00:56.858Z,983.63
2022-12-29T09:01:56.920Z,983.77
2022-12-29T09:02:57.053Z,983.77
2022-12-29T09:04:56.888Z,984.07
2022-12-29T09:05:56.811Z,983.83
2022-12-29T09:06:56.778Z,983.79
2022-12-29T09:07:56.795Z,983.88
2022-12-29T09:08:56.752Z,983.85
2022-12-29T09:09:56.770Z,983.82
2022-12-29T09:10:56.757Z,983.85
2022-12-29T09:11:56.723Z,983.91
2022-12-29T09:12:56.712Z,983.92
2022-12-29T09:13:56.729Z,983.94
2022-12-29T09:14:56.719Z,983.90
2022-12-29T09:15:56.722Z,983.85
2022-12-29T09:16:56.668Z,983.83
2022-12-29T09:17:56.679Z,983.80
2022-12-29T09:18:56.639Z,983.85
2022-12-29T09:19:56.629Z,983.90
2022-12-29T09:20:56.621Z,983.89
2022-12-29T09:21:56.631Z,983.92
2022-12-29T09:22:56.586Z,983.93
2022-12-29T09:23:56.623Z,983.96
2022-12-29T09:24:56.603Z,983.97
2022-12-29T09:25:56.550Z,984.03
2022-12-29T09:26:56.539Z,983.98
2022-12-29T09:27:56.537Z,983.96
2022-12-29T09:28:56.553Z,984.12
2022-12-29T09:29:56.511Z,984.13
2022-12-29T09:30:56.533Z,984.13
2022-12-29T09:31:56.484Z,984.04
2022-12-29T09:32:56.517Z,984.09
2022-12-29T09:33:56.467Z,984.11
2022-12-29T09:34:56.559Z,984.06
2022-12-29T09:35:56.434Z,984.15
2022-12-29T09:36:56.446Z,984.10
2022-12-29T09:37:56.418Z,984.13
2022-12-29T09:38:56.396Z,984.16
2022-12-29T09:39:56.426Z,984.17
2022-12-29T09:40:56.374Z,984.25
2022-12-29T09:41:56.382Z,984.27
2022-12-29T09:42:56.361Z,984.30
2022-12-29T09:43:56.352Z,984.28
2022-12-29T09:44:56.423Z,984.30
2022-12-29T09:45:56.355Z,984.31
2022-12-29T09:46:56.486Z,984.34
2022-12-29T09:47:56.301Z,984.34
2022-12-29T09:48:56.301Z,984.35
2022-12-29T09:49:56.277Z,984.35
2022-12-29T09:50:56.274Z,984.39
2022-12-29T09:51:56.266Z,984.40
2022-12-29T09:52:56.248Z,984.40
2022-12-29T09:53:56.228Z,984.37
2022-12-29T09:55:02.949Z,984.42
2022-12-29T09:55:56.224Z,984.34
2022-12-29T09:56:56.191Z,984.35
2022-12-29T09:57:56.195Z,984.34
2022-12-29T09:58:56.168Z,984.40
2022-12-29T09:59:56.156Z,984.33
2022-12-29T10:00:56.278Z,984.39
2022-12-29T10:01:56.405Z,984.44
2022-12-29T10:02:56.257Z,984.43
2022-12-29T10:03:56.131Z,984.40
2022-12-29T10:04:56.146Z,984.35
2022-12-29T10:05:56.080Z,984.37
2022-12-29T10:07:27.883Z,984.31
2022-12-29T10:07:56.086Z,984.31
2022-12-29T10:08:56.052Z,984.37
2022-12-29T10:09:56.047Z,984.36
2022-12-29T10:10:56.069Z,984.28
2022-12-29T10:11:56.023Z,984.26
2022-12-29T10:12:56.001Z,984.32
2022-12-29T10:13:56.017Z,984.34
2022-12-29T10:14:55.995Z,984.22
2022-12-29T10:15:56.030Z,984.30
2022-12-29T10:16:55.977Z,984.33
2022-12-29T10:17:55.958Z,984.33
2022-12-29T10:18:55.958Z,984.28
2022-12-29T10:19:55.929Z,984.32
2022-12-29T10:20:55.919Z,984.32
2022-12-29T10:21:55.921Z,984.29
2022-12-29T10:22:55.931Z,984.32
2022-12-29T10:23:55.893Z,984.30
2022-12-29T10:24:55.871Z,984.32
2022-12-29T10:25:55.884Z,984.25
2022-12-29T10:26:55.850Z,984.27
2022-12-29T10:27:55.837Z,984.38
2022-12-29T10:28:55.855Z,984.32
2022-12-29T10:29:55.856Z,984.34
2022-12-29T10:30:55.803Z,984.38
2022-12-29T10:31:55.883Z,984.39
2022-12-29T10:32:55.786Z,984.25
2022-12-29T10:33:55.790Z,984.47
2022-12-29T10:34:55.761Z,984.36
2022-12-29T10:35:55.751Z,984.39
2022-12-29T10:36:55.732Z,984.32
2022-12-29T10:37:55.732Z,984.32
2022-12-29T10:38:55.754Z,984.29
2022-12-29T10:39:55.713Z,984.36
2022-12-29T10:40:55.698Z,984.37
2022-12-29T10:41:55.706Z,984.36
2022-12-29T10:42:55.678Z,984.36
2022-12-29T10:43:55.657Z,984.27
2022-12-29T10:44:55.975Z,984.42
2022-12-29T10:45:55.743Z,984.31
2022-12-29T10:46:55.619Z,984.54
2022-12-29T10:47:55.611Z,984.43
2022-12-29T10:48:55.612Z,984.47
2022-12-29T10:49:55.666Z,984.42
2022-12-29T10:51:01.425Z,984.44
2022-12-29T10:51:55.576Z,984.56
2022-12-29T10:52:55.564Z,984.42
2022-12-29T10:53:55.553Z,984.55
2022-12-29T10:54:55.529Z,984.52
2022-12-29T10:55:55.520Z,984.55
2022-12-29T10:56:55.502Z,984.48
2022-12-29T10:57:55.654Z,984.50
2022-12-29T10:58:55.482Z,984.51
2022-12-29T10:59:55.501Z,984.52
2022-12-29T11:00:55.555Z,984.45
2022-12-29T11:01:55.698Z,984.47
2022-12-29T11:02:55.608Z,984.60
2022-12-29T11:03:55.426Z,984.54
2022-12-29T11:04:55.435Z,984.48
2022-12-29T11:05:55.402Z,984.45
2022-12-29T11:06:55.415Z,984.49
2022-12-29T11:07:55.528Z,984.52
2022-12-29T11:08:55.388Z,984.65
2022-12-29T11:09:55.356Z,984.61
2022-12-29T11:10:55.350Z,984.60
2022-12-29T11:11:55.336Z,984.53
2022-12-29T11:12:55.330Z,984.60
2022-12-29T11:13:55.312Z,984.67
2022-12-29T11:14:55.285Z,984.67
2022-12-29T11:15:55.275Z,984.74
2022-12-29T11:16:55.344Z,984.69
2022-12-29T11:17:55.257Z,984.63
2022-12-29T11:18:55.238Z,984.76
2022-12-29T11:19:55.238Z,984.68
2022-12-29T11:20:55.240Z,984.69
2022-12-29T11:21:55.231Z,984.63
2022-12-29T11:22:55.207Z,984.68
2022-12-29T11:23:55.181Z,984.65
2022-12-29T11:24:55.180Z,984.66
2022-12-29T11:25:55.159Z,984.63
2022-12-29T11:26:55.164Z,984.73
2022-12-29T11:27:55.156Z,984.76
2022-12-29T11:28:55.153Z,984.71
2022-12-29T11:29:55.109Z,984.80
2022-12-29T11:30:55.113Z,984.68
2022-12-29T11:31:55.123Z,984.69
2022-12-29T11:32:55.082Z,984.76
2022-12-29T11:33:55.076Z,984.79
2022-12-29T11:34:55.068Z,984.72
2022-12-29T11:35:55.056Z,984.81
2022-12-29T11:36:55.025Z,984.79
2022-12-29T11:37:55.033Z,984.73
2022-12-29T11:38:55.019Z,984.90
2022-12-29T11:39:55.011Z,984.84
2022-12-29T11:40:54.988Z,984.89
2022-12-29T11:41:54.984Z,984.78
2022-12-29T11:42:54.974Z,984.75
2022-12-29T11:43:54.959Z,984.88
2022-12-29T11:44:54.936Z,984.86
2022-12-29T11:45:55.062Z,984.91
2022-12-29T11:46:54.912Z,984.92
2022-12-29T11:47:54.918Z,984.90
2022-12-29T11:48:54.894Z,984.95
2022-12-29T11:49:54.887Z,984.95
2022-12-29T11:50:54.896Z,985.01
2022-12-29T11:51:54.880Z,984.90
2022-12-29T11:52:54.856Z,984.95
2022-12-29T11:53:54.848Z,985.00
2022-12-29T11:54:54.827Z,984.84
2022-12-29T11:55:54.822Z,984.96
2022-12-29T11:56:54.859Z,985.02
2022-12-29T11:57:54.791Z,985.01
2022-12-29T11:58:54.779Z,984.95
2022-12-29T11:59:54.767Z,984.95
2022-12-29T12:00:54.747Z,985.02
2022-12-29T12:01:54.831Z,985.04
2022-12-29T12:02:54.841Z,985.04
2022-12-29T12:03:54.982Z,984.96
2022-12-29T12:04:54.719Z,985.04
2022-12-29T12:05:54.733Z,985.03
2022-12-29T12:06:54.725Z,985.03
2022-12-29T12:07:54.681Z,984.99
2022-12-29T12:08:54.717Z,985.06
2022-12-29T12:09:54.652Z,985.06
2022-12-29T12:10:54.643Z,985.04
2022-12-29T12:11:54.628Z,985.05
2022-12-29T12:12:54.624Z,984.98
2022-12-29T12:13:54.606Z,985.15
2022-12-29T12:14:54.614Z,985.16
2022-12-29T12:15:57.065Z,985.19
2022-12-29T12:16:54.601Z,985.12
2022-12-29T12:17:54.578Z,985.15
2022-12-29T12:18:54.545Z,985.14
2022-12-29T12:19:54.530Z,985.10
2022-12-29T12:20:54.519Z,985.08
2022-12-29T12:21:54.557Z,985.17
2022-12-29T12:22:54.507Z,985.06
2022-12-29T12:23:54.496Z,985.14
2022-12-29T12:24:54.488Z,985.15
2022-12-29T12:25:54.494Z,985.20
2022-12-29T12:26:54.458Z,985.20
2022-12-29T12:27:54.457Z,985.11
2022-12-29T12:28:54.458Z,985.27